Time;durP1;ratioP1;P1;durP2;ratioP2;P2;SDS_P1;SDS_P2;PMS_P1;PMS_P2;Temp;Humidity;BMP_temperature;BMP_pressure;BME280_temperature;BME280_humidity;BME280_pressure;Samples;Min_cycle;Max_cycle;Signal;HPM_P1;HPM_P2
2022/02/07 00:19:06;;;;;;;7.03;3.40;;;1.70;99.90;;;;;;5080402;28;20212;-72
2022/02/07 00:21:33;;;;;;;11.43;3.90;;;1.80;99.90;;;;;;5096653;28;20175;-71
2022/02/07 00:23:59;;;;;;;6.38;3.63;;;1.70;99.90;;;;;;5099831;28;20179;-71
2022/02/07 00:26:25;;;;;;;7.47;3.60;;;1.70;99.90;;;;;;5109480;28;20232;-71
2022/02/07 00:28:53;;;;;;;6.70;3.55;;;1.60;99.90;;;;;;5094343;28;20219;-72
2022/02/07 00:31:19;;;;;;;4.50;2.75;;;1.60;99.90;;;;;;5081675;28;20183;-72
2022/02/07 00:33:45;;;;;;;6.68;3.08;;;1.50;99.90;;;;;;5101924;28;20175;-72
2022/02/07 00:36:14;;;;;;;7.90;3.60;;;1.40;99.90;;;;;;5101364;28;20276;-74
2022/02/07 00:38:44;;;;;;;7.05;3.70;;;1.30;99.90;;;;;;5095698;28;20203;-73
2022/02/07 00:41:18;;;;;;;5.53;3.67;;;1.30;99.90;;;;;;5105605;28;20199;-72
2022/02/07 00:43:46;;;;;;;10.73;3.58;;;1.30;99.90;;;;;;5096847;28;20214;-73
2022/02/07 00:46:20;;;;;;;7.03;3.95;;;1.30;99.90;;;;;;5099633;28;20168;-72
2022/02/07 00:48:45;;;;;;;7.78;4.38;;;1.40;99.90;;;;;;5104661;28;20195;-72
2022/02/07 00:51:11;;;;;;;6.97;4.43;;;1.40;99.90;;;;;;5093687;28;20160;-73
2022/02/07 00:53:37;;;;;;;6.47;3.30;;;1.60;99.90;;;;;;5109200;28;20171;-73
2022/02/07 00:56:04;;;;;;;7.65;3.55;;;1.70;99.90;;;;;;5100773;28;20202;-71
2022/02/07 00:58:30;;;;;;;5.72;3.00;;;1.60;99.90;;;;;;5103398;28;20182;-72
2022/02/07 01:00:56;;;;;;;6.28;3.55;;;1.50;99.90;;;;;;5093371;28;20239;-72
2022/02/07 01:03:23;;;;;;;13.55;4.20;;;1.40;99.90;;;;;;5105605;28;20582;-73
2022/02/07 01:05:50;;;;;;;4.40;2.88;;;1.40;99.90;;;;;;5097750;28;20266;-72
2022/02/07 01:08:19;;;;;;;7.03;3.50;;;1.30;99.90;;;;;;5098652;28;20817;-72
2022/02/07 01:11:31;;;;;;;7.18;3.03;;;1.40;99.90;;;;;;5105251;28;20163;-72
2022/02/07 01:55:57;;;;;;;6.93;3.55;;;1.70;99.90;;;;;;5097157;28;20174;-72
2022/02/07 01:58:24;;;;;;;4.22;3.38;;;1.70;99.90;;;;;;5096782;28;20174;-73
2022/02/07 02:00:50;;;;;;;7.00;4.07;;;1.60;99.90;;;;;;5092569;28;20271;-72
2022/02/07 02:03:17;;;;;;;6.32;3.78;;;1.60;99.90;;;;;;5099630;28;20202;-73
2022/02/07 02:05:43;;;;;;;5.20;2.83;;;1.60;99.90;;;;;;5102280;28;20164;-73
2022/02/07 02:08:11;;;;;;;4.22;2.42;;;1.50;99.90;;;;;;5098636;28;20307;-73
2022/02/07 02:10:48;;;;;;;7.65;3.40;;;1.60;99.90;;;;;;5094396;28;20160;-73
2022/02/07 02:13:28;;;;;;;7.03;3.85;;;1.60;99.90;;;;;;5105286;28;20207;-73
2022/02/07 02:16:04;;;;;;;3.80;2.72;;;1.70;99.90;;;;;;5097170;28;20190;-73
2022/02/07 02:35:25;;;;;;;5.65;3.67;;;2.40;99.90;;;;;;5092529;28;20203;-73
2022/02/07 02:37:59;;;;;;;4.60;2.80;;;2.50;99.90;;;;;;5083205;28;20384;-72
2022/02/07 02:45:41;;;;;;;8.30;3.40;;;2.80;99.90;;;;;;5080698;28;20194;-72
2022/02/07 02:48:24;;;;;;;7.75;3.65;;;2.80;99.90;;;;;;5097858;28;20188;-73
2022/02/07 02:50:53;;;;;;;6.80;3.85;;;2.80;99.90;;;;;;5104179;28;20163;-73
2022/02/07 02:53:20;;;;;;;8.00;3.60;;;2.90;99.90;;;;;;5091795;28;20156;-72
2022/02/07 02:55:48;;;;;;;5.45;2.75;;;3.00;99.90;;;;;;5101332;28;20174;-73
2022/02/07 02:58:18;;;;;;;10.20;3.53;;;3.00;99.90;;;;;;5099434;28;20546;-72
2022/02/07 03:00:47;;;;;;;7.82;3.60;;;2.90;99.90;;;;;;5092139;28;20172;-72
2022/02/07 03:03:13;;;;;;;7.53;4.65;;;2.90;99.90;;;;;;5104893;28;20167;-72
2022/02/07 03:05:43;;;;;;;4.78;4.07;;;2.90;99.90;;;;;;5094468;28;20163;-72
2022/02/07 03:08:11;;;;;;;10.27;4.20;;;2.90;99.90;;;;;;5097885;28;20191;-72
2022/02/07 03:11:00;;;;;;;8.07;4.10;;;2.90;99.90;;;;;;5101613;28;20173;-72
2022/02/07 03:18:37;;;;;;;6.07;3.75;;;2.90;99.90;;;;;;5106400;28;20206;-73
2022/02/07 03:21:03;;;;;;;5.85;3.55;;;2.90;99.90;;;;;;5094788;28;20199;-73
2022/02/07 03:23:29;;;;;;;7.30;4.05;;;2.90;99.90;;;;;;5107368;28;20160;-73
2022/02/07 03:25:55;;;;;;;8.20;4.53;;;3.00;99.90;;;;;;5100472;28;20190;-72
2022/02/07 03:28:28;;;;;;;8.23;4.05;;;3.20;99.90;;;;;;5099911;28;20241;-73
2022/02/07 03:30:55;;;;;;;7.25;4.05;;;3.20;99.90;;;;;;5101637;28;20167;-73
2022/02/07 03:33:21;;;;;;;7.80;4.18;;;3.40;99.90;;;;;;5095077;28;20195;-72
2022/02/07 03:35:47;;;;;;;8.93;4.22;;;3.60;99.90;;;;;;5104394;28;20214;-72
2022/02/07 03:38:13;;;;;;;6.03;3.60;;;3.70;99.90;;;;;;5102599;28;20221;-73
2022/02/07 03:40:39;;;;;;;8.50;5.00;;;3.80;99.90;;;;;;5096483;28;20164;-72
2022/02/07 03:43:05;;;;;;;9.68;3.78;;;4.20;99.90;;;;;;5108030;28;20203;-73
2022/02/07 03:45:31;;;;;;;7.40;3.53;;;4.40;99.90;;;;;;5096680;28;20173;-73
2022/02/07 03:47:57;;;;;;;8.30;4.57;;;4.60;99.90;;;;;;5102790;28;20192;-72
2022/02/07 03:50:23;;;;;;;7.57;3.63;;;5.50;99.90;;;;;;5103646;28;20163;-75
2022/02/07 03:52:52;;;;;;;7.13;4.20;;;6.20;99.90;;;;;;5094673;28;20230;-73
2022/02/07 03:55:18;;;;;;;10.30;5.82;;;6.40;99.90;;;;;;5107914;28;20174;-73
2022/02/07 03:57:45;;;;;;;9.23;5.65;;;6.90;99.90;;;;;;5098154;28;20168;-74
2022/02/07 04:00:15;;;;;;;6.53;4.25;;;6.90;99.90;;;;;;5100549;28;20183;-73
2022/02/07 04:02:45;;;;;;;6.03;3.42;;;6.90;99.90;;;;;;5105224;28;20230;-73
2022/02/07 04:07:46;;;;;;;7.72;3.70;;;5.90;99.90;;;;;;5105392;28;20195;-78
2022/02/07 04:10:12;;;;;;;6.43;4.28;;;5.50;99.90;;;;;;5101846;28;20588;-75
2022/02/07 04:12:40;;;;;;;5.85;3.65;;;5.10;99.90;;;;;;5096114;28;20188;-73
2022/02/07 04:15:09;;;;;;;5.82;4.07;;;4.70;99.90;;;;;;5107564;28;20259;-73
2022/02/07 04:17:42;;;;;;;7.07;2.88;;;4.50;99.90;;;;;;5096556;28;20175;-73
2022/02/07 04:20:08;;;;;;;5.90;3.60;;;4.40;99.90;;;;;;5100589;28;20217;-73
2022/02/07 04:22:34;;;;;;;4.97;2.83;;;4.20;99.90;;;;;;5104248;28;20572;-72
2022/02/07 04:25:00;;;;;;;7.43;3.47;;;4.10;99.90;;;;;;5093975;28;20209;-73
2022/02/07 04:27:26;;;;;;;4.22;2.47;;;4.10;99.90;;;;;;5106559;28;20187;-73
2022/02/07 04:29:52;;;;;;;4.72;2.47;;;4.00;99.90;;;;;;5098490;28;20198;-72
2022/02/07 04:32:18;;;;;;;3.80;2.80;;;4.00;99.90;;;;;;5099042;28;20188;-72
2022/02/07 04:34:44;;;;;;;3.75;3.00;;;3.90;99.90;;;;;;5105426;28;20188;-73
2022/02/07 04:37:10;;;;;;;5.47;3.45;;;3.80;99.90;;;;;;5093996;28;20168;-72
2022/02/07 04:39:35;;;;;;;5.40;2.88;;;3.70;99.90;;;;;;5104619;28;20168;-73
2022/02/07 04:42:06;;;;;;;4.85;2.80;;;3.70;99.90;;;;;;5099824;28;20553;-73
2022/02/07 04:44:39;;;;;;;5.63;3.15;;;3.70;99.90;;;;;;5096496;28;20167;-73
2022/02/07 04:52:39;;;;;;;4.78;2.45;;;3.50;99.90;;;;;;5099550;28;20202;-73
2022/02/07 05:03:01;;;;;;;5.18;3.25;;;3.50;99.90;;;;;;5104426;28;20242;-73
2022/02/07 05:16:20;;;;;;;5.93;2.75;;;3.60;99.90;;;;;;5098756;28;20253;-73
2022/02/07 05:18:53;;;;;;;5.72;3.70;;;3.60;99.90;;;;;;5104850;28;20163;-73
2022/02/07 05:21:20;;;;;;;4.82;2.92;;;3.60;99.90;;;;;;5076564;28;20198;-72
2022/02/07 05:23:46;;;;;;;5.57;3.05;;;3.60;99.90;;;;;;5102634;28;20260;-72
2022/02/07 05:26:12;;;;;;;3.45;2.72;;;3.70;99.90;;;;;;5099874;28;20174;-72
2022/02/07 05:28:39;;;;;;;3.42;2.85;;;3.50;99.90;;;;;;5094877;28;20568;-72
2022/02/07 05:31:04;;;;;;;4.57;2.95;;;3.30;99.90;;;;;;5106006;28;20233;-72
2022/02/07 05:33:30;;;;;;;5.60;2.95;;;3.10;99.90;;;;;;5094310;28;20163;-72
2022/02/07 05:35:56;;;;;;;6.40;3.80;;;3.10;99.90;;;;;;5100110;28;20563;-72
2022/02/07 05:38:22;;;;;;;4.63;3.13;;;3.10;99.90;;;;;;5101210;28;20174;-72
2022/02/07 05:43:18;;;;;;;5.90;4.50;;;3.00;99.90;;;;;;5105731;28;20187;-72
2022/02/07 05:45:44;;;;;;;7.85;4.65;;;3.20;99.90;;;;;;5095964;28;20225;-72
2022/02/07 05:48:11;;;;;;;6.75;4.55;;;3.20;99.90;;;;;;5097731;28;20188;-72
2022/02/07 05:50:37;;;;;;;5.93;3.17;;;3.30;99.90;;;;;;5103019;28;20168;-72
2022/02/07 05:53:03;;;;;;;6.22;3.65;;;3.40;99.90;;;;;;5091455;28;20191;-72
2022/02/07 05:55:29;;;;;;;6.50;3.38;;;3.40;99.90;;;;;;5104090;28;20179;-72
2022/02/07 05:57:55;;;;;;;4.75;3.45;;;3.50;99.90;;;;;;5096453;28;20175;-72
2022/02/07 06:00:21;;;;;;;8.52;3.80;;;3.50;99.90;;;;;;5096422;28;20180;-72
2022/02/07 06:02:47;;;;;;;5.63;3.05;;;3.40;99.90;;;;;;5103910;28;20226;-72
2022/02/07 06:05:14;;;;;;;3.70;2.78;;;3.30;99.90;;;;;;5091935;28;20175;-72
2022/02/07 06:07:40;;;;;;;4.18;2.20;;;3.30;99.90;;;;;;5101890;28;20207;-72
2022/02/07 06:10:07;;;;;;;3.58;1.92;;;3.20;99.90;;;;;;5098095;28;20164;-71
2022/02/07 06:12:38;;;;;;;4.47;2.60;;;3.40;99.90;;;;;;5094861;28;20271;-72
2022/02/07 06:15:08;;;;;;;1.27;1.08;;;3.50;99.90;;;;;;5104966;28;20174;-71
2022/02/07 06:17:34;;;;;;;1.80;1.35;;;4.00;99.90;;;;;;5093434;28;20178;-71
2022/02/07 06:20:00;;;;;;;2.78;1.85;;;4.00;99.90;;;;;;5098513;28;20167;-72
2022/02/07 06:22:27;;;;;;;2.25;0.90;;;3.90;99.90;;;;;;5099614;28;20191;-72
2022/02/07 06:24:53;;;;;;;1.67;0.68;;;4.10;99.90;;;;;;5091836;28;20156;-72
2022/02/07 06:27:19;;;;;;;0.88;0.52;;;4.10;99.90;;;;;;5074883;28;20164;-72
2022/02/07 06:29:46;;;;;;;0.35;0.30;;;3.90;99.90;;;;;;5100634;28;20163;-72
2022/02/07 06:32:12;;;;;;;0.98;0.60;;;3.70;99.90;;;;;;5097698;28;20282;-72
2022/02/07 06:34:39;;;;;;;0.77;0.70;;;3.80;99.90;;;;;;5093757;28;20164;-72
2022/02/07 06:37:07;;;;;;;0.40;0.40;;;4.00;99.90;;;;;;5104598;28;20171;-72
2022/02/07 06:39:33;;;;;;;0.68;0.60;;;3.90;99.90;;;;;;5092822;28;20167;-72
2022/02/07 06:41:59;;;;;;;0.57;0.50;;;3.80;99.90;;;;;;5099066;28;20202;-72
2022/02/07 06:44:26;;;;;;;4.65;0.85;;;3.70;99.90;;;;;;5100568;28;20186;-72
2022/02/07 06:46:54;;;;;;;0.47;0.47;;;3.70;99.90;;;;;;5090864;28;20166;-73
2022/02/07 06:49:21;;;;;;;1.27;0.80;;;3.50;99.90;;;;;;5075120;28;20803;-72
2022/02/07 06:51:47;;;;;;;0.43;0.25;;;3.40;99.90;;;;;;5103753;28;20199;-72
2022/02/07 06:54:13;;;;;;;1.38;1.00;;;3.50;99.90;;;;;;5097110;28;20172;-72
2022/02/07 06:56:40;;;;;;;4.22;1.50;;;3.60;99.90;;;;;;5102451;28;20166;-72
2022/02/07 06:59:06;;;;;;;2.45;1.55;;;4.00;99.90;;;;;;5090063;28;20198;-72
2022/02/07 07:01:33;;;;;;;0.60;0.60;;;4.30;99.90;;;;;;5078736;28;20238;-72
2022/02/07 07:03:59;;;;;;;1.15;1.00;;;4.30;99.90;;;;;;5099136;28;20179;-72
2022/02/07 07:06:25;;;;;;;0.40;0.40;;;4.10;99.90;;;;;;5100538;28;20685;-72
2022/02/07 07:08:54;;;;;;;0.40;0.40;;;4.20;99.90;;;;;;5091371;28;20222;-72
2022/02/07 07:11:24;;;;;;;0.50;0.30;;;4.30;99.90;;;;;;5073599;28;20409;-72
2022/02/07 07:14:02;;;;;;;0.95;0.22;;;4.50;99.90;;;;;;5095006;28;20221;-72
2022/02/07 07:18:55;;;;;;;0.17;0.17;;;4.40;99.90;;;;;;5091014;28;20174;-72
2022/02/07 07:21:20;;;;;;;0.10;0.10;;;4.70;99.90;;;;;;5103606;28;20669;-72
2022/02/07 07:23:46;;;;;;;0.40;0.25;;;5.10;99.90;;;;;;5093606;28;20179;-72
2022/02/07 07:26:12;;;;;;;0.20;0.20;;;5.10;99.90;;;;;;5096816;28;20210;-72
2022/02/07 07:28:40;;;;;;;0.10;0.10;;;5.10;99.90;;;;;;5102014;28;20222;-72
2022/02/07 07:31:09;;;;;;;0.10;0.10;;;5.10;99.90;;;;;;5091122;28;20210;-72
2022/02/07 07:33:36;;;;;;;0.00;0.00;;;5.40;99.90;;;;;;5101677;28;20184;-73
2022/02/07 07:36:02;;;;;;;0.10;0.10;;;5.40;99.90;;;;;;5097200;28;20160;-72
2022/02/07 07:38:29;;;;;;;0.28;0.15;;;5.30;99.90;;;;;;5094552;28;20222;-74
2022/02/07 07:40:55;;;;;;;0.10;0.10;;;5.30;99.90;;;;;;5104238;28;20178;-73
2022/02/07 07:43:21;;;;;;;0.10;0.10;;;5.60;99.90;;;;;;5089701;28;20195;-75
2022/02/07 07:45:55;;;;;;;0.10;0.10;;;5.80;99.90;;;;;;5100517;28;20179;-72
2022/02/07 07:48:24;;;;;;;0.90;0.20;;;6.10;99.90;;;;;;5099554;28;20195;-73
2022/02/07 07:50:58;;;;;;;3.10;0.30;;;5.60;99.90;;;;;;5091317;28;20167;-73
2022/02/07 08:04:25;;;;;;;0.25;0.25;;;5.50;99.90;;;;;;5098738;28;20210;-73
2022/02/07 08:07:00;;;;;;;0.57;0.20;;;5.60;99.90;;;;;;5107197;28;20194;-73
2022/02/07 08:09:44;;;;;;;0.52;0.52;;;5.70;99.90;;;;;;5079291;28;20251;-73
2022/02/07 08:12:12;;;;;;;0.73;0.40;;;5.80;99.90;;;;;;5100399;28;20163;-73
2022/02/07 08:14:38;;;;;;;1.58;0.40;;;5.80;99.90;;;;;;5104773;28;20215;-73
2022/02/07 08:17:06;;;;;;;0.43;0.25;;;6.00;99.90;;;;;;5094245;28;20234;-74
2022/02/07 08:19:33;;;;;;;2.92;0.30;;;6.10;99.90;;;;;;5105356;28;20188;-72
2022/02/07 08:22:00;;;;;;;0.82;0.30;;;6.40;99.90;;;;;;5099735;28;20195;-72
2022/02/07 08:24:26;;;;;;;0.40;0.30;;;6.70;99.90;;;;;;5097161;28;20211;-73
2022/02/07 08:26:54;;;;;;;0.52;0.15;;;6.60;99.90;;;;;;5107013;28;20232;-74
2022/02/07 08:29:21;;;;;;;1.98;1.30;;;6.70;99.90;;;;;;5077561;28;20289;-73
2022/02/07 08:31:47;;;;;;;2.70;0.40;;;8.40;99.90;;;;;;5103245;28;20164;-74
2022/02/07 08:34:13;;;;;;;1.30;0.30;;;10.50;99.90;;;;;;5101355;28;20196;-73
2022/02/07 08:36:40;;;;;;;3.10;1.30;;;11.50;99.90;;;;;;5095297;28;20159;-72
2022/02/07 08:39:07;;;;;;;1.27;1.08;;;12.20;99.40;;;;;;5099222;28;20212;-72
2022/02/07 08:41:32;;;;;;;1.85;0.30;;;11.90;99.50;;;;;;5091294;28;20160;-71
2022/02/07 08:43:58;;;;;;;0.52;0.40;;;11.90;99.20;;;;;;5106261;28;20236;-74
2022/02/07 08:46:24;;;;;;;0.05;0.05;;;9.00;99.90;;;;;;5096155;28;20163;-72
2022/02/07 08:48:50;;;;;;;1.70;0.60;;;7.60;99.90;;;;;;5106047;28;21174;-74
2022/02/07 08:51:21;;;;;;;2.40;0.60;;;8.30;99.90;;;;;;5088945;28;20183;-74
2022/02/07 08:53:48;;;;;;;1.08;0.20;;;8.80;99.90;;;;;;5101945;28;20172;-75
2022/02/07 08:56:16;;;;;;;0.60;0.22;;;7.30;99.90;;;;;;5091283;28;20192;-72
2022/02/07 08:58:45;;;;;;;0.05;0.05;;;7.40;99.90;;;;;;5105087;28;20163;-74
2022/02/07 09:09:08;;;;;;;0.40;0.30;;;6.30;99.90;;;;;;5090164;28;20278;-73
2022/02/07 09:11:35;;;;;;;0.38;0.38;;;6.00;99.90;;;;;;5084995;28;20297;-73
2022/02/07 09:14:09;;;;;;;6.75;1.02;;;6.10;99.90;;;;;;5104786;28;20167;-73
2022/02/07 09:16:37;;;;;;;1.70;0.20;;;6.20;99.90;;;;;;5095001;28;20192;-73
2022/02/07 09:19:04;;;;;;;0.57;0.15;;;6.30;99.90;;;;;;5105780;28;20195;-72
2022/02/07 09:21:30;;;;;;;1.08;0.45;;;6.40;99.90;;;;;;5093602;28;20199;-72
2022/02/07 09:23:58;;;;;;;0.20;0.20;;;6.40;99.90;;;;;;5100944;28;20190;-72
2022/02/07 09:26:24;;;;;;;3.80;0.60;;;6.60;99.90;;;;;;5101959;28;20202;-72
2022/02/07 09:28:50;;;;;;;0.30;0.30;;;6.60;99.90;;;;;;5091097;28;20211;-72
2022/02/07 09:31:18;;;;;;;0.68;0.68;;;6.60;99.90;;;;;;5106044;28;20167;-73
2022/02/07 09:33:44;;;;;;;0.13;0.13;;;5.90;99.90;;;;;;5096140;28;20263;-73
2022/02/07 09:36:15;;;;;;;0.13;0.13;;;5.80;99.90;;;;;;5097590;28;20178;-73
2022/02/07 09:38:43;;;;;;;0.38;0.10;;;5.70;99.90;;;;;;5089382;28;20163;-72
2022/02/07 09:41:11;;;;;;;0.28;0.28;;;6.10;99.90;;;;;;5088528;28;20179;-72
2022/02/07 09:43:44;;;;;;;0.20;0.20;;;6.20;99.90;;;;;;5088837;28;20163;-72
2022/02/07 09:46:17;;;;;;;0.10;0.10;;;6.90;99.90;;;;;;5090012;28;20613;-72
2022/02/07 09:48:44;;;;;;;5.75;3.08;;;7.20;99.90;;;;;;5070666;28;20199;-72
2022/02/07 09:51:13;;;;;;;6.22;2.25;;;6.50;99.90;;;;;;5069755;28;20145;-73
2022/02/07 09:53:40;;;;;;;7.15;3.65;;;6.10;99.90;;;;;;5068239;28;20186;-73
2022/02/07 09:56:08;;;;;;;1.65;0.38;;;5.60;99.90;;;;;;5069653;28;20202;-72
2022/02/07 09:58:38;;;;;;;2.03;0.65;;;5.10;99.90;;;;;;5069325;28;20219;-72
2022/02/07 10:01:11;;;;;;;2.75;0.90;;;4.60;99.90;;;;;;5069277;28;20238;-73
2022/02/07 10:04:01;;;;;;;0.38;0.30;;;4.30;99.90;;;;;;5069508;28;20187;-72
2022/02/07 10:06:39;;;;;;;1.63;0.80;;;4.30;99.90;;;;;;5069486;28;20182;-72
2022/02/07 10:34:31;;;;;;;1.80;0.98;;;7.10;99.90;;;;;;5089379;28;20159;-73
2022/02/07 10:40:37;;;;;;;1.00;0.40;;;7.70;99.90;;;;;;5089135;28;20290;-73
2022/02/07 10:48:44;;;;;;;0.40;0.28;;;10.00;99.90;;;;;;5071917;28;20254;-74
2022/02/07 10:51:21;;;;;;;0.10;0.10;;;10.30;99.90;;;;;;5069079;28;20635;-74
2022/02/07 10:53:50;;;;;;;3.47;0.47;;;9.60;99.90;;;;;;5068760;28;20161;-74
2022/02/07 10:56:22;;;;;;;3.50;0.40;;;8.10;99.90;;;;;;5067553;28;20252;-73
2022/02/07 10:58:53;;;;;;;0.17;0.13;;;7.60;99.90;;;;;;5068807;28;20161;-73
2022/02/07 11:01:40;;;;;;;0.95;0.20;;;7.40;99.90;;;;;;5068607;28;20284;-73
2022/02/07 11:04:12;;;;;;;0.47;0.30;;;7.50;99.90;;;;;;5068889;28;20164;-73
2022/02/07 11:06:40;;;;;;;0.32;0.10;;;7.60;99.90;;;;;;5068652;28;20378;-73
2022/02/07 11:20:15;;;;;;;0.65;0.30;;;7.40;99.90;;;;;;5086449;28;20196;-73
2022/02/07 11:23:12;;;;;;;1.55;0.90;;;7.10;99.90;;;;;;5086608;28;20542;-73
2022/02/07 11:28:28;;;;;;;0.43;0.10;;;7.60;99.90;;;;;;5086489;28;20203;-73
2022/02/07 11:30:57;;;;;;;0.20;0.20;;;8.40;99.90;;;;;;5086395;28;20175;-73
2022/02/07 11:34:11;;;;;;;0.10;0.10;;;8.70;99.90;;;;;;5088215;28;20187;-73
2022/02/07 11:36:40;;;;;;;0.20;0.20;;;8.30;99.90;;;;;;5030422;28;20265;-73
2022/02/07 11:39:11;;;;;;;0.17;0.17;;;7.70;99.90;;;;;;5030543;28;20185;-72
2022/02/07 11:41:56;;;;;;;0.10;0.10;;;7.70;99.90;;;;;;5046970;28;20186;-72
2022/02/07 11:44:26;;;;;;;0.20;0.13;;;7.50;99.90;;;;;;5049881;28;20189;-73
2022/02/07 11:47:31;;;;;;;0.75;0.10;;;7.10;99.90;;;;;;5046219;28;20233;-73
2022/02/07 11:50:01;;;;;;;0.25;0.25;;;6.90;99.90;;;;;;5029923;28;20189;-73
2022/02/07 11:52:29;;;;;;;0.13;0.10;;;7.40;99.90;;;;;;5022501;28;20219;-73
2022/02/07 11:55:23;;;;;;;0.20;0.13;;;8.30;99.90;;;;;;5010424;28;20182;-72
2022/02/07 11:58:08;;;;;;;0.75;0.20;;;9.40;99.90;;;;;;5009433;28;20199;-73
2022/02/07 12:00:44;;;;;;;0.40;0.20;;;10.00;99.90;;;;;;5010258;28;20163;-73
2022/02/07 12:03:13;;;;;;;2.45;0.20;;;10.30;99.90;;;;;;5010252;28;20254;-73
2022/02/07 12:05:50;;;;;;;4.07;0.25;;;9.90;99.90;;;;;;5010317;28;20164;-73
2022/02/07 12:08:26;;;;;;;0.75;0.40;;;10.20;99.90;;;;;;5010174;28;20221;-73
2022/02/07 12:11:06;;;;;;;0.60;0.45;;;9.80;99.90;;;;;;5054255;28;20637;-73
2022/02/07 12:13:34;;;;;;;0.40;0.32;;;9.40;99.90;;;;;;5071686;28;20184;-73
2022/02/07 12:16:20;;;;;;;0.55;0.45;;;9.50;99.90;;;;;;5071400;28;20157;-73
2022/02/07 12:18:58;;;;;;;2.00;0.20;;;10.60;99.90;;;;;;5071614;28;20251;-72
2022/02/07 12:21:29;;;;;;;0.10;0.10;;;11.60;99.90;;;;;;5071484;28;20164;-72
2022/02/07 12:24:01;;;;;;;0.50;0.17;;;11.70;99.90;;;;;;5071478;28;20165;-73
2022/02/07 12:26:28;;;;;;;2.92;0.10;;;11.80;99.90;;;;;;5071358;28;20161;-73
2022/02/07 12:29:00;;;;;;;0.85;0.10;;;9.60;99.90;;;;;;5071312;28;20185;-73
2022/02/07 12:31:28;;;;;;;0.20;0.17;;;9.00;99.90;;;;;;5071387;28;20153;-72
2022/02/07 12:34:07;;;;;;;0.30;0.30;;;8.00;99.90;;;;;;5071110;28;20219;-72
2022/02/07 12:36:36;;;;;;;0.20;0.20;;;8.30;99.90;;;;;;5071977;28;20152;-71
2022/02/07 12:39:13;;;;;;;0.28;0.10;;;8.20;99.90;;;;;;5090889;28;20179;-71
2022/02/07 12:41:41;;;;;;;0.35;0.20;;;8.30;99.90;;;;;;5079934;28;20188;-72
2022/02/07 12:44:09;;;;;;;0.17;0.10;;;8.10;99.90;;;;;;5070042;28;20187;-73
2022/02/07 12:46:40;;;;;;;0.57;0.20;;;6.60;99.90;;;;;;5072211;28;20161;-73
2022/02/07 12:49:12;;;;;;;0.88;0.40;;;6.70;99.90;;;;;;5090199;28;20211;-74
2022/02/07 12:51:46;;;;;;;0.30;0.30;;;6.70;99.90;;;;;;5094643;28;20167;-75
2022/02/07 12:54:20;;;;;;;0.10;0.10;;;6.60;99.90;;;;;;5103998;28;20206;-73
2022/02/07 12:56:46;;;;;;;0.10;0.10;;;6.20;99.90;;;;;;5110785;28;20179;-73
2022/02/07 12:59:12;;;;;;;0.30;0.20;;;5.70;99.90;;;;;;5111294;28;20166;-72
2022/02/07 13:01:42;;;;;;;1.55;0.35;;;5.90;99.90;;;;;;5110947;28;20297;-73
2022/02/07 13:04:18;;;;;;;0.40;0.40;;;6.30;99.90;;;;;;5111126;28;20259;-73
2022/02/07 13:06:47;;;;;;;0.20;0.20;;;6.40;99.90;;;;;;5110984;28;20217;-72
2022/02/07 13:09:17;;;;;;;0.55;0.20;;;6.30;99.90;;;;;;5110992;28;20187;-74
2022/02/07 13:11:47;;;;;;;1.98;0.17;;;6.20;99.90;;;;;;5110900;28;20159;-74
2022/02/07 13:14:18;;;;;;;0.80;0.45;;;6.00;99.90;;;;;;5110946;28;20151;-73
2022/02/07 13:16:45;;;;;;;2.08;0.38;;;5.90;99.90;;;;;;5110760;28;20187;-73
2022/02/07 13:19:20;;;;;;;0.10;0.10;;;6.10;99.90;;;;;;5110870;28;20171;-73
2022/02/07 13:21:53;;;;;;;0.30;0.20;;;5.90;99.90;;;;;;5110849;28;20155;-74
2022/02/07 13:24:22;;;;;;;0.00;0.00;;;5.90;99.90;;;;;;5110801;28;20166;-73
2022/02/07 13:26:50;;;;;;;0.30;0.10;;;6.10;99.90;;;;;;5110546;28;20214;-73
2022/02/07 13:29:23;;;;;;;0.15;0.15;;;5.80;99.90;;;;;;5110699;28;20187;-73
2022/02/07 13:32:00;;;;;;;1.05;0.20;;;5.80;99.90;;;;;;5110203;28;20172;-74
2022/02/07 13:34:31;;;;;;;0.10;0.10;;;5.80;99.90;;;;;;5110424;28;20643;-73
2022/02/07 13:37:28;;;;;;;0.82;0.30;;;5.90;99.90;;;;;;5110414;28;20187;-74
2022/02/07 13:40:02;;;;;;;0.30;0.30;;;5.80;99.90;;;;;;5108089;28;20194;-73
2022/02/07 13:42:34;;;;;;;0.55;0.20;;;5.90;99.90;;;;;;5088869;28;20231;-73
2022/02/07 13:45:11;;;;;;;1.35;0.35;;;6.10;99.90;;;;;;5089984;28;20252;-73
2022/02/07 13:47:40;;;;;;;0.10;0.10;;;6.40;99.90;;;;;;5089260;28;20195;-72
2022/02/07 13:50:09;;;;;;;0.15;0.15;;;6.50;99.90;;;;;;5089858;28;20159;-73
2022/02/07 13:52:38;;;;;;;0.70;0.20;;;6.50;99.90;;;;;;5088531;28;20200;-73
2022/02/07 13:55:15;;;;;;;2.10;0.30;;;6.60;99.90;;;;;;5089331;28;20180;-73
2022/02/07 13:57:59;;;;;;;0.10;0.10;;;6.60;99.90;;;;;;5089459;28;20221;-72
2022/02/07 14:00:29;;;;;;;3.50;0.30;;;6.10;99.90;;;;;;5089535;28;20152;-73
2022/02/07 14:03:18;;;;;;;0.10;0.10;;;5.90;99.90;;;;;;5089478;28;20222;-75
2022/02/07 14:05:45;;;;;;;1.65;0.20;;;5.10;99.90;;;;;;5089497;28;20187;-73
2022/02/07 14:08:13;;;;;;;0.20;0.20;;;4.70;99.90;;;;;;5089376;28;20198;-73
2022/02/07 14:10:40;;;;;;;0.10;0.10;;;4.80;99.90;;;;;;5088856;28;20183;-72
2022/02/07 14:13:16;;;;;;;0.20;0.20;;;4.90;99.90;;;;;;5089000;28;20163;-73
2022/02/07 14:15:46;;;;;;;0.10;0.10;;;4.80;99.90;;;;;;5089062;28;20194;-73
2022/02/07 14:18:15;;;;;;;0.10;0.10;;;4.90;99.90;;;;;;5089202;28;20220;-73
2022/02/07 14:20:42;;;;;;;0.20;0.20;;;4.90;99.90;;;;;;5089531;28;20160;-73
2022/02/07 14:23:13;;;;;;;0.10;0.10;;;4.90;99.90;;;;;;5089303;28;20156;-73
2022/02/07 14:25:44;;;;;;;0.25;0.25;;;4.50;99.90;;;;;;5089074;28;20192;-73
2022/02/07 14:28:12;;;;;;;0.55;0.20;;;4.70;99.90;;;;;;5089167;28;20190;-72
2022/02/07 14:30:38;;;;;;;0.20;0.20;;;4.80;99.90;;;;;;5089408;28;20187;-72
2022/02/07 14:33:05;;;;;;;1.65;0.30;;;4.50;99.90;;;;;;5089120;28;20168;-72
2022/02/07 14:35:32;;;;;;;0.73;0.20;;;4.80;99.90;;;;;;5087805;28;20180;-71
2022/02/07 14:38:03;;;;;;;0.68;0.40;;;5.00;99.90;;;;;;5088985;28;20222;-72
2022/02/07 14:40:31;;;;;;;0.30;0.17;;;5.20;99.90;;;;;;5087310;28;20206;-72
2022/02/07 14:43:00;;;;;;;0.63;0.20;;;5.40;99.90;;;;;;5068982;28;20288;-72
2022/02/07 14:45:31;;;;;;;0.38;0.20;;;5.40;99.90;;;;;;5068842;28;20169;-73
2022/02/07 14:48:01;;;;;;;0.22;0.17;;;5.30;99.90;;;;;;5081411;28;20188;-72
2022/02/07 14:50:28;;;;;;;0.08;0.08;;;5.30;99.90;;;;;;5089001;28;20170;-72
2022/02/07 14:52:55;;;;;;;0.10;0.10;;;5.40;99.90;;;;;;5088653;28;20182;-72
2022/02/07 14:55:23;;;;;;;1.48;0.22;;;5.30;99.90;;;;;;5088899;28;20531;-72
2022/02/07 14:57:51;;;;;;;0.40;0.35;;;5.30;99.90;;;;;;5088861;28;20195;-72
2022/02/07 15:00:26;;;;;;;0.10;0.10;;;5.30;99.90;;;;;;5101154;28;20163;-72
2022/02/07 15:02:54;;;;;;;1.83;0.70;;;5.00;99.90;;;;;;5108905;28;20228;-71
2022/02/07 15:05:20;;;;;;;1.15;0.70;;;4.90;99.90;;;;;;5108688;28;20523;-71
2022/02/07 15:07:46;;;;;;;1.02;0.40;;;4.70;99.90;;;;;;5087579;28;20168;-71
2022/02/07 15:10:12;;;;;;;0.80;0.57;;;4.40;99.90;;;;;;5091246;28;20689;-71
2022/02/07 15:12:38;;;;;;;2.85;0.32;;;4.40;99.90;;;;;;5091471;28;20271;-71
2022/02/07 15:15:05;;;;;;;0.20;0.20;;;4.40;99.90;;;;;;5092978;28;20163;-71
2022/02/07 15:17:31;;;;;;;3.83;0.55;;;4.40;99.90;;;;;;5092720;28;20164;-71
2022/02/07 15:20:04;;;;;;;0.60;0.40;;;4.40;99.90;;;;;;5092754;28;20148;-71
2022/02/07 15:22:30;;;;;;;1.25;0.40;;;4.50;99.90;;;;;;5092498;28;20242;-71
2022/02/07 15:24:59;;;;;;;0.45;0.30;;;4.60;99.90;;;;;;5092576;28;20194;-71
2022/02/07 15:27:26;;;;;;;3.40;0.43;;;4.70;99.90;;;;;;5092756;28;20287;-71
2022/02/07 15:29:56;;;;;;;8.73;3.17;;;4.70;99.90;;;;;;5092504;28;20188;-71
2022/02/07 15:34:54;;;;;;;1.75;0.68;;;4.50;99.90;;;;;;5092531;28;20175;-71
2022/02/07 15:37:20;;;;;;;2.50;0.68;;;4.40;99.90;;;;;;5092334;28;20152;-72
2022/02/07 15:39:46;;;;;;;1.63;0.70;;;4.30;99.90;;;;;;5092177;28;20202;-72
2022/02/07 15:42:13;;;;;;;0.43;0.43;;;4.20;99.90;;;;;;5089831;28;20195;-72
2022/02/07 15:44:39;;;;;;;0.30;0.30;;;4.20;99.90;;;;;;5092391;28;20180;-73
2022/02/07 15:47:05;;;;;;;0.47;0.25;;;4.20;99.90;;;;;;5085417;28;20164;-71
2022/02/07 15:49:32;;;;;;;0.17;0.17;;;4.10;99.90;;;;;;5072693;28;20189;-71
2022/02/07 15:52:00;;;;;;;0.63;0.30;;;4.00;99.90;;;;;;5072072;28;20587;-72
2022/02/07 15:54:28;;;;;;;3.25;0.30;;;3.90;99.90;;;;;;5072729;28;20525;-71
2022/02/07 15:56:53;;;;;;;3.60;2.05;;;3.80;99.90;;;;;;5070745;28;20235;-71
2022/02/07 15:59:19;;;;;;;0.45;0.28;;;3.70;99.90;;;;;;5072063;28;20172;-72
2022/02/07 16:01:48;;;;;;;1.45;0.22;;;3.60;99.90;;;;;;5071048;28;20224;-71
2022/02/07 16:04:14;;;;;;;0.30;0.30;;;3.50;99.90;;;;;;5070518;28;20577;-71
2022/02/07 16:06:39;;;;;;;0.50;0.30;;;3.40;99.90;;;;;;5085794;28;20172;-72
2022/02/07 16:09:06;;;;;;;0.50;0.50;;;3.40;99.90;;;;;;5071398;28;20211;-72
2022/02/07 16:11:35;;;;;;;0.75;0.43;;;3.50;99.90;;;;;;5090497;28;20247;-72
2022/02/07 16:14:01;;;;;;;0.60;0.50;;;3.50;99.90;;;;;;5075343;28;20707;-72
2022/02/07 16:16:32;;;;;;;1.23;0.60;;;3.40;99.90;;;;;;5075940;28;20177;-73